sensor_id;sensor_type;location;lat;lon;timestamp;P1;durP1;ratioP1;P2;durP2;ratioP2
75823;SDS011;64457;51.976;9.834;2023-02-26T00:00:59;3.95;;;1.83;;
75823;SDS011;64457;51.976;9.834;2023-02-26T00:03:26;6.40;;;1.73;;
75823;SDS011;64457;51.976;9.834;2023-02-26T00:05:57;5.40;;;2.30;;
75823;SDS011;64457;51.976;9.834;2023-02-26T00:08:25;4.83;;;2.17;;
75823;SDS011;64457;51.976;9.834;2023-02-26T00:10:53;3.97;;;1.85;;
75823;SDS011;64457;51.976;9.834;2023-02-26T00:13:20;7.28;;;2.65;;
75823;SDS011;64457;51.976;9.834;2023-02-26T00:15:48;3.05;;;1.77;;
75823;SDS011;64457;51.976;9.834;2023-02-26T00:18:19;7.15;;;2.38;;
75823;SDS011;64457;51.976;9.834;2023-02-26T00:20:47;3.17;;;2.03;;
75823;SDS011;64457;51.976;9.834;2023-02-26T00:23:15;6.83;;;1.93;;
75823;SDS011;64457;51.976;9.834;2023-02-26T00:25:43;12.00;;;2.35;;
75823;SDS011;64457;51.976;9.834;2023-02-26T00:28:11;4.93;;;1.80;;
75823;SDS011;64457;51.976;9.834;2023-02-26T00:30:40;5.68;;;2.60;;
75823;SDS011;64457;51.976;9.834;2023-02-26T00:33:08;2.90;;;1.80;;
75823;SDS011;64457;51.976;9.834;2023-02-26T00:35:37;3.70;;;1.70;;
75823;SDS011;64457;51.976;9.834;2023-02-26T00:38:06;4.65;;;2.08;;
75823;SDS011;64457;51.976;9.834;2023-02-26T00:40:37;6.60;;;1.70;;
75823;SDS011;64457;51.976;9.834;2023-02-26T00:43:11;3.80;;;1.67;;
75823;SDS011;64457;51.976;9.834;2023-02-26T00:45:43;5.90;;;2.13;;
75823;SDS011;64457;51.976;9.834;2023-02-26T00:48:22;5.35;;;1.60;;
75823;SDS011;64457;51.976;9.834;2023-02-26T00:51:09;7.60;;;1.83;;
75823;SDS011;64457;51.976;9.834;2023-02-26T00:53:51;2.90;;;1.70;;
75823;SDS011;64457;51.976;9.834;2023-02-26T00:56:26;11.83;;;1.90;;
75823;SDS011;64457;51.976;9.834;2023-02-26T00:58:53;7.18;;;1.95;;
75823;SDS011;64457;51.976;9.834;2023-02-26T01:01:20;5.63;;;2.07;;
75823;SDS011;64457;51.976;9.834;2023-02-26T01:03:48;4.25;;;1.40;;
75823;SDS011;64457;51.976;9.834;2023-02-26T01:06:17;5.90;;;1.83;;
75823;SDS011;64457;51.976;9.834;2023-02-26T01:08:48;4.18;;;1.55;;
75823;SDS011;64457;51.976;9.834;2023-02-26T01:11:23;2.73;;;1.47;;
75823;SDS011;64457;51.976;9.834;2023-02-26T01:13:51;10.88;;;1.65;;
75823;SDS011;64457;51.976;9.834;2023-02-26T01:16:19;4.47;;;2.43;;
75823;SDS011;64457;51.976;9.834;2023-02-26T01:18:52;4.30;;;1.67;;
75823;SDS011;64457;51.976;9.834;2023-02-26T01:21:30;4.13;;;1.73;;
75823;SDS011;64457;51.976;9.834;2023-02-26T01:24:04;4.18;;;1.70;;
75823;SDS011;64457;51.976;9.834;2023-02-26T01:26:36;4.55;;;1.88;;
75823;SDS011;64457;51.976;9.834;2023-02-26T01:29:03;3.73;;;1.67;;
75823;SDS011;64457;51.976;9.834;2023-02-26T01:31:33;5.00;;;2.20;;
75823;SDS011;64457;51.976;9.834;2023-02-26T01:34:08;5.30;;;1.90;;
75823;SDS011;64457;51.976;9.834;2023-02-26T01:36:45;7.55;;;2.65;;
75823;SDS011;64457;51.976;9.834;2023-02-26T01:39:18;3.13;;;1.60;;
75823;SDS011;64457;51.976;9.834;2023-02-26T01:41:57;4.80;;;1.83;;
75823;SDS011;64457;51.976;9.834;2023-02-26T01:44:37;3.03;;;1.60;;
75823;SDS011;64457;51.976;9.834;2023-02-26T01:47:12;4.20;;;2.07;;
75823;SDS011;64457;51.976;9.834;2023-02-26T01:49:46;9.03;;;2.40;;
75823;SDS011;64457;51.976;9.834;2023-02-26T01:55:34;3.77;;;2.03;;
75823;SDS011;64457;51.976;9.834;2023-02-26T01:58:02;4.47;;;1.70;;
75823;SDS011;64457;51.976;9.834;2023-02-26T02:00:30;3.83;;;1.97;;
75823;SDS011;64457;51.976;9.834;2023-02-26T02:02:57;5.13;;;2.20;;
75823;SDS011;64457;51.976;9.834;2023-02-26T02:05:25;4.70;;;2.00;;
75823;SDS011;64457;51.976;9.834;2023-02-26T02:07:59;7.85;;;3.17;;
75823;SDS011;64457;51.976;9.834;2023-02-26T02:10:27;6.93;;;2.10;;
75823;SDS011;64457;51.976;9.834;2023-02-26T02:12:57;5.93;;;2.57;;
75823;SDS011;64457;51.976;9.834;2023-02-26T02:15:33;3.80;;;2.50;;
75823;SDS011;64457;51.976;9.834;2023-02-26T02:18:11;5.13;;;2.30;;
75823;SDS011;64457;51.976;9.834;2023-02-26T02:20:54;5.15;;;2.90;;
75823;SDS011;64457;51.976;9.834;2023-02-26T02:23:47;6.80;;;2.63;;
75823;SDS011;64457;51.976;9.834;2023-02-26T02:26:39;6.73;;;2.50;;
75823;SDS011;64457;51.976;9.834;2023-02-26T02:29:24;5.75;;;2.60;;
75823;SDS011;64457;51.976;9.834;2023-02-26T02:32:18;5.13;;;2.60;;
75823;SDS011;64457;51.976;9.834;2023-02-26T02:34:48;4.20;;;2.45;;
75823;SDS011;64457;51.976;9.834;2023-02-26T02:37:21;4.67;;;2.80;;
75823;SDS011;64457;51.976;9.834;2023-02-26T02:39:55;5.68;;;2.30;;
75823;SDS011;64457;51.976;9.834;2023-02-26T02:42:27;5.05;;;2.33;;
75823;SDS011;64457;51.976;9.834;2023-02-26T02:45:02;5.75;;;2.10;;
75823;SDS011;64457;51.976;9.834;2023-02-26T02:47:38;10.93;;;2.50;;
75823;SDS011;64457;51.976;9.834;2023-02-26T02:50:10;7.07;;;2.17;;
75823;SDS011;64457;51.976;9.834;2023-02-26T02:52:47;4.43;;;2.20;;
75823;SDS011;64457;51.976;9.834;2023-02-26T02:55:19;5.93;;;2.08;;
75823;SDS011;64457;51.976;9.834;2023-02-26T02:57:51;4.13;;;2.00;;
75823;SDS011;64457;51.976;9.834;2023-02-26T03:00:25;4.20;;;2.10;;
75823;SDS011;64457;51.976;9.834;2023-02-26T03:02:58;2.73;;;1.83;;
75823;SDS011;64457;51.976;9.834;2023-02-26T03:05:32;3.60;;;1.80;;
75823;SDS011;64457;51.976;9.834;2023-02-26T03:08:00;8.55;;;2.28;;
75823;SDS011;64457;51.976;9.834;2023-02-26T03:10:32;4.95;;;1.80;;
75823;SDS011;64457;51.976;9.834;2023-02-26T03:13:01;2.90;;;1.75;;
75823;SDS011;64457;51.976;9.834;2023-02-26T03:15:32;3.67;;;1.90;;
75823;SDS011;64457;51.976;9.834;2023-02-26T03:18:12;5.82;;;2.00;;
75823;SDS011;64457;51.976;9.834;2023-02-26T03:20:51;7.03;;;1.93;;
75823;SDS011;64457;51.976;9.834;2023-02-26T03:23:31;4.90;;;1.73;;
75823;SDS011;64457;51.976;9.834;2023-02-26T03:26:06;3.53;;;1.65;;
75823;SDS011;64457;51.976;9.834;2023-02-26T03:28:39;11.95;;;2.47;;
75823;SDS011;64457;51.976;9.834;2023-02-26T03:31:14;5.35;;;2.10;;
75823;SDS011;64457;51.976;9.834;2023-02-26T03:33:49;3.90;;;1.80;;
75823;SDS011;64457;51.976;9.834;2023-02-26T03:36:23;4.20;;;1.80;;
75823;SDS011;64457;51.976;9.834;2023-02-26T03:38:56;4.30;;;2.00;;
75823;SDS011;64457;51.976;9.834;2023-02-26T03:41:32;5.10;;;1.83;;
75823;SDS011;64457;51.976;9.834;2023-02-26T03:44:04;4.43;;;2.40;;
75823;SDS011;64457;51.976;9.834;2023-02-26T03:46:36;4.40;;;1.63;;
75823;SDS011;64457;51.976;9.834;2023-02-26T03:49:10;5.40;;;2.10;;
75823;SDS011;64457;51.976;9.834;2023-02-26T03:51:42;12.05;;;2.50;;
75823;SDS011;64457;51.976;9.834;2023-02-26T03:54:12;6.38;;;2.40;;
75823;SDS011;64457;51.976;9.834;2023-02-26T03:56:46;4.90;;;1.93;;
75823;SDS011;64457;51.976;9.834;2023-02-26T03:59:14;3.30;;;1.80;;
75823;SDS011;64457;51.976;9.834;2023-02-26T04:01:44;3.37;;;1.80;;
75823;SDS011;64457;51.976;9.834;2023-02-26T04:04:22;2.70;;;1.50;;
75823;SDS011;64457;51.976;9.834;2023-02-26T04:06:55;3.28;;;1.55;;
75823;SDS011;64457;51.976;9.834;2023-02-26T04:09:23;15.73;;;2.13;;
75823;SDS011;64457;51.976;9.834;2023-02-26T04:11:50;6.13;;;1.90;;
75823;SDS011;64457;51.976;9.834;2023-02-26T04:14:20;6.20;;;1.83;;
75823;SDS011;64457;51.976;9.834;2023-02-26T04:16:47;5.17;;;2.23;;
75823;SDS011;64457;51.976;9.834;2023-02-26T04:19:14;4.57;;;2.23;;
75823;SDS011;64457;51.976;9.834;2023-02-26T04:21:43;4.55;;;2.10;;
75823;SDS011;64457;51.976;9.834;2023-02-26T04:24:10;5.93;;;2.50;;
75823;SDS011;64457;51.976;9.834;2023-02-26T04:26:38;8.20;;;2.30;;
75823;SDS011;64457;51.976;9.834;2023-02-26T04:29:06;3.50;;;1.73;;
75823;SDS011;64457;51.976;9.834;2023-02-26T04:31:33;3.93;;;2.17;;
75823;SDS011;64457;51.976;9.834;2023-02-26T04:34:00;5.55;;;2.05;;
75823;SDS011;64457;51.976;9.834;2023-02-26T04:36:28;5.27;;;1.90;;
75823;SDS011;64457;51.976;9.834;2023-02-26T04:38:56;5.80;;;1.80;;
75823;SDS011;64457;51.976;9.834;2023-02-26T04:41:24;5.00;;;1.95;;
75823;SDS011;64457;51.976;9.834;2023-02-26T04:43:51;4.50;;;1.83;;
75823;SDS011;64457;51.976;9.834;2023-02-26T04:46:18;5.37;;;1.67;;
75823;SDS011;64457;51.976;9.834;2023-02-26T04:48:45;4.70;;;1.50;;
75823;SDS011;64457;51.976;9.834;2023-02-26T04:51:13;5.77;;;1.83;;
75823;SDS011;64457;51.976;9.834;2023-02-26T04:53:40;2.83;;;1.53;;
75823;SDS011;64457;51.976;9.834;2023-02-26T04:56:09;4.10;;;1.60;;
75823;SDS011;64457;51.976;9.834;2023-02-26T04:58:36;4.30;;;2.80;;
75823;SDS011;64457;51.976;9.834;2023-02-26T05:01:03;3.40;;;1.47;;
75823;SDS011;64457;51.976;9.834;2023-02-26T05:03:31;4.47;;;1.80;;
75823;SDS011;64457;51.976;9.834;2023-02-26T05:05:58;6.40;;;1.90;;
75823;SDS011;64457;51.976;9.834;2023-02-26T05:08:26;5.67;;;1.90;;
75823;SDS011;64457;51.976;9.834;2023-02-26T05:10:54;3.00;;;1.53;;
75823;SDS011;64457;51.976;9.834;2023-02-26T05:13:23;5.03;;;1.80;;
75823;SDS011;64457;51.976;9.834;2023-02-26T05:15:51;5.13;;;2.37;;
75823;SDS011;64457;51.976;9.834;2023-02-26T05:18:19;4.70;;;1.80;;
75823;SDS011;64457;51.976;9.834;2023-02-26T05:20:50;3.50;;;1.63;;
75823;SDS011;64457;51.976;9.834;2023-02-26T05:23:18;3.80;;;1.27;;
75823;SDS011;64457;51.976;9.834;2023-02-26T05:25:46;6.03;;;2.10;;
75823;SDS011;64457;51.976;9.834;2023-02-26T05:28:13;4.63;;;1.70;;
75823;SDS011;64457;51.976;9.834;2023-02-26T05:30:42;2.47;;;1.13;;
75823;SDS011;64457;51.976;9.834;2023-02-26T05:33:09;4.43;;;1.40;;
75823;SDS011;64457;51.976;9.834;2023-02-26T05:35:36;2.63;;;1.30;;
75823;SDS011;64457;51.976;9.834;2023-02-26T05:38:04;4.03;;;1.70;;
75823;SDS011;64457;51.976;9.834;2023-02-26T05:40:31;6.83;;;1.60;;
75823;SDS011;64457;51.976;9.834;2023-02-26T05:42:58;4.95;;;1.15;;
75823;SDS011;64457;51.976;9.834;2023-02-26T05:45:25;7.13;;;1.40;;
75823;SDS011;64457;51.976;9.834;2023-02-26T05:47:54;2.75;;;1.33;;
75823;SDS011;64457;51.976;9.834;2023-02-26T05:50:21;4.67;;;1.50;;
75823;SDS011;64457;51.976;9.834;2023-02-26T05:52:48;3.63;;;1.35;;
75823;SDS011;64457;51.976;9.834;2023-02-26T05:55:15;4.65;;;1.50;;
75823;SDS011;64457;51.976;9.834;2023-02-26T05:57:43;4.10;;;1.60;;
75823;SDS011;64457;51.976;9.834;2023-02-26T06:00:11;9.70;;;1.50;;
75823;SDS011;64457;51.976;9.834;2023-02-26T06:02:39;4.63;;;1.35;;
75823;SDS011;64457;51.976;9.834;2023-02-26T06:05:08;5.35;;;1.42;;
75823;SDS011;64457;51.976;9.834;2023-02-26T06:07:36;7.30;;;1.70;;
75823;SDS011;64457;51.976;9.834;2023-02-26T06:10:03;7.63;;;1.70;;
75823;SDS011;64457;51.976;9.834;2023-02-26T06:12:32;5.17;;;1.60;;
75823;SDS011;64457;51.976;9.834;2023-02-26T06:15:00;2.83;;;1.30;;
75823;SDS011;64457;51.976;9.834;2023-02-26T06:17:27;2.80;;;1.30;;
75823;SDS011;64457;51.976;9.834;2023-02-26T06:19:54;3.35;;;1.30;;
75823;SDS011;64457;51.976;9.834;2023-02-26T06:22:23;6.30;;;1.30;;
75823;SDS011;64457;51.976;9.834;2023-02-26T06:24:50;6.03;;;1.37;;
75823;SDS011;64457;51.976;9.834;2023-02-26T06:27:19;4.10;;;1.60;;
75823;SDS011;64457;51.976;9.834;2023-02-26T06:29:46;4.55;;;1.42;;
75823;SDS011;64457;51.976;9.834;2023-02-26T06:32:14;4.83;;;1.60;;
75823;SDS011;64457;51.976;9.834;2023-02-26T06:34:41;2.60;;;1.20;;
75823;SDS011;64457;51.976;9.834;2023-02-26T06:37:08;3.53;;;1.10;;
75823;SDS011;64457;51.976;9.834;2023-02-26T06:39:40;4.57;;;1.40;;
75823;SDS011;64457;51.976;9.834;2023-02-26T06:42:07;3.57;;;1.47;;
75823;SDS011;64457;51.976;9.834;2023-02-26T06:44:35;4.90;;;1.20;;
75823;SDS011;64457;51.976;9.834;2023-02-26T06:47:02;4.93;;;1.10;;
75823;SDS011;64457;51.976;9.834;2023-02-26T06:49:30;2.37;;;1.10;;
75823;SDS011;64457;51.976;9.834;2023-02-26T06:51:57;2.93;;;1.10;;
75823;SDS011;64457;51.976;9.834;2023-02-26T06:54:25;4.43;;;1.20;;
75823;SDS011;64457;51.976;9.834;2023-02-26T06:56:53;2.20;;;0.90;;
75823;SDS011;64457;51.976;9.834;2023-02-26T06:59:22;6.70;;;1.30;;
75823;SDS011;64457;51.976;9.834;2023-02-26T07:01:49;6.40;;;2.30;;
75823;SDS011;64457;51.976;9.834;2023-02-26T07:04:16;5.17;;;2.23;;
75823;SDS011;64457;51.976;9.834;2023-02-26T07:06:43;3.73;;;1.53;;
75823;SDS011;64457;51.976;9.834;2023-02-26T07:09:11;2.50;;;1.10;;
75823;SDS011;64457;51.976;9.834;2023-02-26T07:11:38;2.00;;;1.10;;
75823;SDS011;64457;51.976;9.834;2023-02-26T07:14:06;3.20;;;1.40;;
75823;SDS011;64457;51.976;9.834;2023-02-26T07:16:34;3.30;;;1.10;;
75823;SDS011;64457;51.976;9.834;2023-02-26T07:19:01;2.30;;;0.80;;
75823;SDS011;64457;51.976;9.834;2023-02-26T07:21:28;3.40;;;1.30;;
75823;SDS011;64457;51.976;9.834;2023-02-26T07:23:55;4.53;;;1.43;;
75823;SDS011;64457;51.976;9.834;2023-02-26T07:26:22;2.83;;;1.27;;
75823;SDS011;64457;51.976;9.834;2023-02-26T07:28:50;3.10;;;1.13;;
75823;SDS011;64457;51.976;9.834;2023-02-26T07:31:19;3.33;;;0.97;;
75823;SDS011;64457;51.976;9.834;2023-02-26T07:33:47;2.20;;;1.00;;
75823;SDS011;64457;51.976;9.834;2023-02-26T07:36:14;2.53;;;1.03;;
75823;SDS011;64457;51.976;9.834;2023-02-26T07:38:41;2.50;;;1.00;;
75823;SDS011;64457;51.976;9.834;2023-02-26T07:41:09;3.37;;;1.13;;
75823;SDS011;64457;51.976;9.834;2023-02-26T07:43:36;5.37;;;1.30;;
75823;SDS011;64457;51.976;9.834;2023-02-26T07:46:03;6.03;;;1.40;;
75823;SDS011;64457;51.976;9.834;2023-02-26T07:51:01;6.93;;;1.20;;
75823;SDS011;64457;51.976;9.834;2023-02-26T07:53:29;9.83;;;1.13;;
75823;SDS011;64457;51.976;9.834;2023-02-26T07:55:56;3.43;;;1.10;;
75823;SDS011;64457;51.976;9.834;2023-02-26T07:58:24;3.43;;;0.90;;
75823;SDS011;64457;51.976;9.834;2023-02-26T08:00:52;5.10;;;1.63;;
75823;SDS011;64457;51.976;9.834;2023-02-26T08:03:19;4.10;;;1.00;;
75823;SDS011;64457;51.976;9.834;2023-02-26T08:05:48;5.03;;;1.20;;
75823;SDS011;64457;51.976;9.834;2023-02-26T08:08:15;5.63;;;1.70;;
75823;SDS011;64457;51.976;9.834;2023-02-26T08:10:42;5.87;;;1.40;;
75823;SDS011;64457;51.976;9.834;2023-02-26T08:13:09;8.87;;;1.30;;
75823;SDS011;64457;51.976;9.834;2023-02-26T08:15:37;8.50;;;1.67;;
75823;SDS011;64457;51.976;9.834;2023-02-26T08:18:06;4.80;;;1.40;;
75823;SDS011;64457;51.976;9.834;2023-02-26T08:20:33;5.60;;;1.77;;
75823;SDS011;64457;51.976;9.834;2023-02-26T08:23:01;9.40;;;2.77;;
75823;SDS011;64457;51.976;9.834;2023-02-26T08:25:29;5.40;;;1.60;;
75823;SDS011;64457;51.976;9.834;2023-02-26T08:27:56;4.77;;;1.50;;
75823;SDS011;64457;51.976;9.834;2023-02-26T08:30:23;9.63;;;1.50;;
75823;SDS011;64457;51.976;9.834;2023-02-26T08:32:50;9.47;;;1.93;;
75823;SDS011;64457;51.976;9.834;2023-02-26T08:35:18;3.40;;;1.17;;
75823;SDS011;64457;51.976;9.834;2023-02-26T08:37:45;3.90;;;1.30;;
75823;SDS011;64457;51.976;9.834;2023-02-26T08:40:13;3.10;;;1.20;;
75823;SDS011;64457;51.976;9.834;2023-02-26T08:42:41;6.50;;;1.67;;
75823;SDS011;64457;51.976;9.834;2023-02-26T08:45:08;4.90;;;1.20;;
75823;SDS011;64457;51.976;9.834;2023-02-26T08:47:36;4.60;;;1.30;;
75823;SDS011;64457;51.976;9.834;2023-02-26T08:50:06;4.70;;;1.00;;
75823;SDS011;64457;51.976;9.834;2023-02-26T08:52:35;6.30;;;1.10;;
75823;SDS011;64457;51.976;9.834;2023-02-26T08:55:03;5.70;;;1.60;;
75823;SDS011;64457;51.976;9.834;2023-02-26T08:57:33;4.20;;;1.30;;
75823;SDS011;64457;51.976;9.834;2023-02-26T09:00:00;4.10;;;1.20;;
75823;SDS011;64457;51.976;9.834;2023-02-26T09:02:29;5.70;;;1.30;;
75823;SDS011;64457;51.976;9.834;2023-02-26T09:04:57;4.57;;;1.20;;
75823;SDS011;64457;51.976;9.834;2023-02-26T09:07:24;5.87;;;1.30;;
75823;SDS011;64457;51.976;9.834;2023-02-26T09:09:51;6.40;;;1.20;;
75823;SDS011;64457;51.976;9.834;2023-02-26T09:12:18;9.10;;;1.57;;
75823;SDS011;64457;51.976;9.834;2023-02-26T09:14:47;6.00;;;1.50;;
75823;SDS011;64457;51.976;9.834;2023-02-26T09:17:14;5.77;;;1.20;;
75823;SDS011;64457;51.976;9.834;2023-02-26T09:19:42;4.70;;;1.10;;
75823;SDS011;64457;51.976;9.834;2023-02-26T09:22:09;5.07;;;1.30;;
75823;SDS011;64457;51.976;9.834;2023-02-26T09:24:39;4.77;;;1.17;;
75823;SDS011;64457;51.976;9.834;2023-02-26T09:27:07;4.50;;;1.00;;
75823;SDS011;64457;51.976;9.834;2023-02-26T09:29:34;4.23;;;1.00;;
75823;SDS011;64457;51.976;9.834;2023-02-26T09:32:03;4.67;;;0.97;;
75823;SDS011;64457;51.976;9.834;2023-02-26T09:34:32;4.00;;;1.13;;
75823;SDS011;64457;51.976;9.834;2023-02-26T09:37:00;3.50;;;0.97;;
75823;SDS011;64457;51.976;9.834;2023-02-26T09:39:28;3.20;;;1.10;;
75823;SDS011;64457;51.976;9.834;2023-02-26T09:41:56;3.70;;;0.93;;
75823;SDS011;64457;51.976;9.834;2023-02-26T09:44:28;6.93;;;2.70;;
75823;SDS011;64457;51.976;9.834;2023-02-26T09:47:00;5.10;;;0.90;;
75823;SDS011;64457;51.976;9.834;2023-02-26T09:49:40;5.90;;;1.47;;
75823;SDS011;64457;51.976;9.834;2023-02-26T09:52:17;2.60;;;0.97;;
75823;SDS011;64457;51.976;9.834;2023-02-26T09:54:52;4.37;;;0.90;;
75823;SDS011;64457;51.976;9.834;2023-02-26T09:57:29;3.73;;;0.83;;
75823;SDS011;64457;51.976;9.834;2023-02-26T09:59:59;3.90;;;1.00;;
75823;SDS011;64457;51.976;9.834;2023-02-26T10:02:34;4.90;;;1.20;;
75823;SDS011;64457;51.976;9.834;2023-02-26T10:05:12;4.93;;;1.17;;
75823;SDS011;64457;51.976;9.834;2023-02-26T10:07:46;4.37;;;1.10;;
75823;SDS011;64457;51.976;9.834;2023-02-26T10:10:24;4.80;;;1.03;;
75823;SDS011;64457;51.976;9.834;2023-02-26T10:13:00;4.77;;;1.23;;
75823;SDS011;64457;51.976;9.834;2023-02-26T10:15:29;6.67;;;2.27;;
75823;SDS011;64457;51.976;9.834;2023-02-26T10:18:07;7.57;;;1.93;;
75823;SDS011;64457;51.976;9.834;2023-02-26T10:20:39;5.03;;;1.30;;
75823;SDS011;64457;51.976;9.834;2023-02-26T10:23:17;4.37;;;1.37;;
75823;SDS011;64457;51.976;9.834;2023-02-26T10:25:51;4.00;;;1.13;;
75823;SDS011;64457;51.976;9.834;2023-02-26T10:28:33;4.70;;;1.30;;
75823;SDS011;64457;51.976;9.834;2023-02-26T10:31:10;4.90;;;1.07;;
75823;SDS011;64457;51.976;9.834;2023-02-26T10:33:48;6.50;;;1.40;;
75823;SDS011;64457;51.976;9.834;2023-02-26T10:36:43;5.30;;;1.10;;
75823;SDS011;64457;51.976;9.834;2023-02-26T10:39:26;4.47;;;1.03;;
75823;SDS011;64457;51.976;9.834;2023-02-26T10:42:00;3.47;;;1.03;;
75823;SDS011;64457;51.976;9.834;2023-02-26T10:44:33;3.90;;;0.90;;
75823;SDS011;64457;51.976;9.834;2023-02-26T10:47:10;3.23;;;0.80;;
75823;SDS011;64457;51.976;9.834;2023-02-26T10:49:53;4.07;;;1.10;;
75823;SDS011;64457;51.976;9.834;2023-02-26T10:52:26;5.07;;;1.00;;
75823;SDS011;64457;51.976;9.834;2023-02-26T10:57:55;6.47;;;1.23;;
75823;SDS011;64457;51.976;9.834;2023-02-26T11:00:30;6.23;;;1.50;;
75823;SDS011;64457;51.976;9.834;2023-02-26T11:02:59;5.27;;;1.67;;
75823;SDS011;64457;51.976;9.834;2023-02-26T11:05:31;3.73;;;0.90;;
75823;SDS011;64457;51.976;9.834;2023-02-26T11:08:01;3.73;;;0.90;;
75823;SDS011;64457;51.976;9.834;2023-02-26T11:10:36;5.87;;;1.20;;
75823;SDS011;64457;51.976;9.834;2023-02-26T11:13:07;3.70;;;0.90;;
75823;SDS011;64457;51.976;9.834;2023-02-26T11:15:35;2.70;;;0.80;;
75823;SDS011;64457;51.976;9.834;2023-02-26T11:18:03;3.90;;;1.03;;
75823;SDS011;64457;51.976;9.834;2023-02-26T11:20:35;3.37;;;1.10;;
75823;SDS011;64457;51.976;9.834;2023-02-26T11:23:06;3.97;;;1.03;;
75823;SDS011;64457;51.976;9.834;2023-02-26T11:25:38;4.97;;;1.50;;
75823;SDS011;64457;51.976;9.834;2023-02-26T11:28:06;6.43;;;1.30;;
75823;SDS011;64457;51.976;9.834;2023-02-26T11:30:50;3.70;;;1.13;;
75823;SDS011;64457;51.976;9.834;2023-02-26T11:33:22;4.07;;;1.10;;
75823;SDS011;64457;51.976;9.834;2023-02-26T11:35:56;4.83;;;1.10;;
75823;SDS011;64457;51.976;9.834;2023-02-26T11:38:26;5.47;;;0.90;;
75823;SDS011;64457;51.976;9.834;2023-02-26T11:40:55;3.37;;;0.90;;
75823;SDS011;64457;51.976;9.834;2023-02-26T11:43:24;5.50;;;1.63;;
75823;SDS011;64457;51.976;9.834;2023-02-26T11:46:00;7.00;;;1.40;;
75823;SDS011;64457;51.976;9.834;2023-02-26T11:48:37;6.10;;;1.00;;
75823;SDS011;64457;51.976;9.834;2023-02-26T11:51:10;5.90;;;1.60;;
75823;SDS011;64457;51.976;9.834;2023-02-26T11:53:41;4.23;;;1.13;;
75823;SDS011;64457;51.976;9.834;2023-02-26T11:56:18;5.00;;;1.00;;
75823;SDS011;64457;51.976;9.834;2023-02-26T11:58:51;3.40;;;1.10;;
75823;SDS011;64457;51.976;9.834;2023-02-26T12:01:20;5.03;;;1.37;;
75823;SDS011;64457;51.976;9.834;2023-02-26T12:03:57;4.60;;;1.23;;
75823;SDS011;64457;51.976;9.834;2023-02-26T12:06:27;2.93;;;1.20;;
75823;SDS011;64457;51.976;9.834;2023-02-26T12:08:56;3.20;;;1.10;;
75823;SDS011;64457;51.976;9.834;2023-02-26T12:11:43;4.93;;;1.10;;
75823;SDS011;64457;51.976;9.834;2023-02-26T12:14:46;6.67;;;1.17;;
75823;SDS011;64457;51.976;9.834;2023-02-26T12:17:37;3.70;;;1.30;;
75823;SDS011;64457;51.976;9.834;2023-02-26T12:20:23;3.23;;;1.00;;
75823;SDS011;64457;51.976;9.834;2023-02-26T12:23:01;4.77;;;1.33;;
75823;SDS011;64457;51.976;9.834;2023-02-26T12:25:53;5.27;;;1.03;;
75823;SDS011;64457;51.976;9.834;2023-02-26T12:31:43;6.10;;;1.50;;
75823;SDS011;64457;51.976;9.834;2023-02-26T12:34:36;3.37;;;1.40;;
75823;SDS011;64457;51.976;9.834;2023-02-26T12:37:40;3.40;;;1.00;;
75823;SDS011;64457;51.976;9.834;2023-02-26T12:40:24;3.20;;;0.90;;
75823;SDS011;64457;51.976;9.834;2023-02-26T12:43:23;7.30;;;3.40;;
75823;SDS011;64457;51.976;9.834;2023-02-26T12:46:01;3.43;;;1.23;;
75823;SDS011;64457;51.976;9.834;2023-02-26T12:48:43;3.10;;;1.10;;
75823;SDS011;64457;51.976;9.834;2023-02-26T12:51:33;3.80;;;1.20;;
75823;SDS011;64457;51.976;9.834;2023-02-26T12:54:28;5.30;;;1.80;;
75823;SDS011;64457;51.976;9.834;2023-02-26T12:57:20;3.23;;;1.10;;
75823;SDS011;64457;51.976;9.834;2023-02-26T13:03:24;2.70;;;0.80;;
75823;SDS011;64457;51.976;9.834;2023-02-26T13:06:48;3.53;;;1.47;;
75823;SDS011;64457;51.976;9.834;2023-02-26T13:09:50;4.90;;;1.13;;
75823;SDS011;64457;51.976;9.834;2023-02-26T13:12:32;4.70;;;1.30;;
75823;SDS011;64457;51.976;9.834;2023-02-26T13:18:07;3.97;;;1.13;;
75823;SDS011;64457;51.976;9.834;2023-02-26T13:20:46;4.10;;;1.10;;
75823;SDS011;64457;51.976;9.834;2023-02-26T13:23:21;2.93;;;1.10;;
75823;SDS011;64457;51.976;9.834;2023-02-26T13:25:52;2.13;;;0.90;;
75823;SDS011;64457;51.976;9.834;2023-02-26T13:28:25;3.00;;;1.00;;
75823;SDS011;64457;51.976;9.834;2023-02-26T13:31:06;2.60;;;0.77;;
75823;SDS011;64457;51.976;9.834;2023-02-26T13:33:39;3.37;;;1.10;;
75823;SDS011;64457;51.976;9.834;2023-02-26T13:36:08;3.80;;;0.90;;
75823;SDS011;64457;51.976;9.834;2023-02-26T13:38:39;3.70;;;0.80;;
75823;SDS011;64457;51.976;9.834;2023-02-26T13:41:25;3.53;;;1.10;;
75823;SDS011;64457;51.976;9.834;2023-02-26T13:44:05;4.13;;;1.00;;
75823;SDS011;64457;51.976;9.834;2023-02-26T13:46:51;2.63;;;0.80;;
75823;SDS011;64457;51.976;9.834;2023-02-26T13:49:52;2.90;;;1.00;;
75823;SDS011;64457;51.976;9.834;2023-02-26T13:52:33;4.10;;;1.20;;
75823;SDS011;64457;51.976;9.834;2023-02-26T13:55:03;3.53;;;1.20;;
75823;SDS011;64457;51.976;9.834;2023-02-26T13:57:35;3.13;;;1.20;;
75823;SDS011;64457;51.976;9.834;2023-02-26T14:00:24;2.60;;;0.90;;
75823;SDS011;64457;51.976;9.834;2023-02-26T14:02:54;5.70;;;1.07;;
75823;SDS011;64457;51.976;9.834;2023-02-26T14:05:33;3.00;;;0.90;;
75823;SDS011;64457;51.976;9.834;2023-02-26T14:08:21;2.10;;;0.80;;
75823;SDS011;64457;51.976;9.834;2023-02-26T14:11:32;2.50;;;1.00;;
75823;SDS011;64457;51.976;9.834;2023-02-26T14:14:12;3.27;;;1.10;;
75823;SDS011;64457;51.976;9.834;2023-02-26T14:17:17;3.60;;;1.30;;
75823;SDS011;64457;51.976;9.834;2023-02-26T14:23:11;4.70;;;1.47;;
75823;SDS011;64457;51.976;9.834;2023-02-26T14:26:02;2.50;;;0.83;;
75823;SDS011;64457;51.976;9.834;2023-02-26T14:28:42;5.23;;;1.13;;
75823;SDS011;64457;51.976;9.834;2023-02-26T14:31:21;2.67;;;0.90;;
75823;SDS011;64457;51.976;9.834;2023-02-26T14:36:43;4.13;;;1.30;;
75823;SDS011;64457;51.976;9.834;2023-02-26T14:39:22;2.80;;;0.83;;
75823;SDS011;64457;51.976;9.834;2023-02-26T14:42:01;3.13;;;1.00;;
75823;SDS011;64457;51.976;9.834;2023-02-26T14:44:33;4.40;;;1.27;;
75823;SDS011;64457;51.976;9.834;2023-02-26T14:47:05;3.37;;;0.90;;
75823;SDS011;64457;51.976;9.834;2023-02-26T14:49:35;3.03;;;1.03;;
75823;SDS011;64457;51.976;9.834;2023-02-26T14:52:18;3.47;;;1.13;;
75823;SDS011;64457;51.976;9.834;2023-02-26T14:58:12;2.40;;;0.80;;
75823;SDS011;64457;51.976;9.834;2023-02-26T15:01:30;2.70;;;1.20;;
75823;SDS011;64457;51.976;9.834;2023-02-26T15:04:19;2.73;;;1.10;;
75823;SDS011;64457;51.976;9.834;2023-02-26T15:07:23;4.03;;;0.80;;
75823;SDS011;64457;51.976;9.834;2023-02-26T15:16:17;2.73;;;0.80;;
75823;SDS011;64457;51.976;9.834;2023-02-26T15:19:01;3.23;;;0.70;;
75823;SDS011;64457;51.976;9.834;2023-02-26T15:21:47;2.63;;;1.00;;
75823;SDS011;64457;51.976;9.834;2023-02-26T15:24:28;4.20;;;1.50;;
75823;SDS011;64457;51.976;9.834;2023-02-26T15:26:57;3.30;;;1.13;;
75823;SDS011;64457;51.976;9.834;2023-02-26T15:29:29;3.10;;;1.20;;
75823;SDS011;64457;51.976;9.834;2023-02-26T15:32:04;2.50;;;0.90;;
75823;SDS011;64457;51.976;9.834;2023-02-26T15:34:41;2.70;;;0.93;;
75823;SDS011;64457;51.976;9.834;2023-02-26T15:37:18;3.60;;;0.90;;
75823;SDS011;64457;51.976;9.834;2023-02-26T15:39:48;2.80;;;1.00;;
75823;SDS011;64457;51.976;9.834;2023-02-26T15:42:16;7.23;;;1.10;;
75823;SDS011;64457;51.976;9.834;2023-02-26T15:44:47;2.43;;;1.00;;
75823;SDS011;64457;51.976;9.834;2023-02-26T15:47:15;4.63;;;1.17;;
75823;SDS011;64457;51.976;9.834;2023-02-26T15:49:44;3.97;;;1.40;;
75823;SDS011;64457;51.976;9.834;2023-02-26T15:52:14;3.00;;;1.03;;
75823;SDS011;64457;51.976;9.834;2023-02-26T15:54:48;4.30;;;0.80;;
75823;SDS011;64457;51.976;9.834;2023-02-26T15:57:18;4.17;;;0.80;;